sensor_id;sensor_type;location;lat;lon;timestamp;temperature;humidity
42755;DHT22;28407;51.830;5.684;2023-05-17T00:00:22;12.00;71.10
42755;DHT22;28407;51.830;5.684;2023-05-17T00:02:23;12.00;71.20
42755;DHT22;28407;51.830;5.684;2023-05-17T00:04:23;12.00;71.20
42755;DHT22;28407;51.830;5.684;2023-05-17T00:06:24;12.00;71.30
42755;DHT22;28407;51.830;5.684;2023-05-17T00:08:24;12.00;71.20
42755;DHT22;28407;51.830;5.684;2023-05-17T00:10:25;12.00;71.30
42755;DHT22;28407;51.830;5.684;2023-05-17T00:12:25;11.90;71.20
42755;DHT22;28407;51.830;5.684;2023-05-17T00:14:26;12.00;71.30
42755;DHT22;28407;51.830;5.684;2023-05-17T00:16:27;11.90;71.20
42755;DHT22;28407;51.830;5.684;2023-05-17T00:18:27;11.90;71.30
42755;DHT22;28407;51.830;5.684;2023-05-17T00:20:28;11.90;71.30
42755;DHT22;28407;51.830;5.684;2023-05-17T00:22:28;11.90;71.30
42755;DHT22;28407;51.830;5.684;2023-05-17T00:24:29;11.90;71.40
42755;DHT22;28407;51.830;5.684;2023-05-17T00:26:30;11.90;71.40
42755;DHT22;28407;51.830;5.684;2023-05-17T00:28:31;11.90;71.40
42755;DHT22;28407;51.830;5.684;2023-05-17T00:30:31;11.80;71.40
42755;DHT22;28407;51.830;5.684;2023-05-17T00:32:32;11.80;71.40
42755;DHT22;28407;51.830;5.684;2023-05-17T00:34:33;11.80;71.40
42755;DHT22;28407;51.830;5.684;2023-05-17T00:36:33;11.80;71.40
42755;DHT22;28407;51.830;5.684;2023-05-17T00:38:35;11.80;71.40
42755;DHT22;28407;51.830;5.684;2023-05-17T00:40:36;11.80;71.40
42755;DHT22;28407;51.830;5.684;2023-05-17T00:42:36;11.80;71.50
42755;DHT22;28407;51.830;5.684;2023-05-17T00:44:37;11.80;71.40
42755;DHT22;28407;51.830;5.684;2023-05-17T00:46:38;11.80;71.50
42755;DHT22;28407;51.830;5.684;2023-05-17T00:48:39;11.80;71.50
42755;DHT22;28407;51.830;5.684;2023-05-17T00:50:40;11.80;71.50
42755;DHT22;28407;51.830;5.684;2023-05-17T00:52:41;11.80;71.50
42755;DHT22;28407;51.830;5.684;2023-05-17T00:54:42;11.80;71.50
42755;DHT22;28407;51.830;5.684;2023-05-17T00:56:43;11.80;71.60
42755;DHT22;28407;51.830;5.684;2023-05-17T00:58:44;11.80;71.50
42755;DHT22;28407;51.830;5.684;2023-05-17T01:00:44;11.70;71.50
42755;DHT22;28407;51.830;5.684;2023-05-17T01:02:45;11.80;71.50
42755;DHT22;28407;51.830;5.684;2023-05-17T01:04:48;11.70;71.50
42755;DHT22;28407;51.830;5.684;2023-05-17T01:06:49;11.70;71.50
42755;DHT22;28407;51.830;5.684;2023-05-17T01:08:50;11.70;71.60
42755;DHT22;28407;51.830;5.684;2023-05-17T01:16:07;11.70;71.70
42755;DHT22;28407;51.830;5.684;2023-05-17T01:18:27;11.70;71.70
42755;DHT22;28407;51.830;5.684;2023-05-17T01:20:36;11.60;71.70
42755;DHT22;28407;51.830;5.684;2023-05-17T01:22:50;11.60;71.80
42755;DHT22;28407;51.830;5.684;2023-05-17T01:27:08;11.60;71.90
42755;DHT22;28407;51.830;5.684;2023-05-17T01:29:11;11.60;71.90
42755;DHT22;28407;51.830;5.684;2023-05-17T01:31:13;11.60;71.90
42755;DHT22;28407;51.830;5.684;2023-05-17T01:33:15;11.60;71.90
42755;DHT22;28407;51.830;5.684;2023-05-17T01:35:16;11.60;71.90
42755;DHT22;28407;51.830;5.684;2023-05-17T01:37:17;11.60;72.00
42755;DHT22;28407;51.830;5.684;2023-05-17T01:39:17;11.60;72.00
42755;DHT22;28407;51.830;5.684;2023-05-17T01:41:39;11.60;72.10
42755;DHT22;28407;51.830;5.684;2023-05-17T01:43:54;11.60;72.20
42755;DHT22;28407;51.830;5.684;2023-05-17T01:46:25;11.60;72.20
42755;DHT22;28407;51.830;5.684;2023-05-17T01:48:35;11.50;72.20
42755;DHT22;28407;51.830;5.684;2023-05-17T01:50:37;11.50;72.20
42755;DHT22;28407;51.830;5.684;2023-05-17T01:52:52;11.50;72.20
42755;DHT22;28407;51.830;5.684;2023-05-17T01:54:58;11.50;72.30
42755;DHT22;28407;51.830;5.684;2023-05-17T01:57:05;11.50;72.40
42755;DHT22;28407;51.830;5.684;2023-05-17T01:59:07;11.50;72.40
42755;DHT22;28407;51.830;5.684;2023-05-17T02:01:12;11.50;72.40
42755;DHT22;28407;51.830;5.684;2023-05-17T02:03:17;11.50;72.50
42755;DHT22;28407;51.830;5.684;2023-05-17T02:05:18;11.60;72.60
42755;DHT22;28407;51.830;5.684;2023-05-17T02:07:18;11.60;72.60
42755;DHT22;28407;51.830;5.684;2023-05-17T02:09:20;11.60;72.60
42755;DHT22;28407;51.830;5.684;2023-05-17T02:11:20;11.60;72.70
42755;DHT22;28407;51.830;5.684;2023-05-17T02:13:21;11.60;72.70
42755;DHT22;28407;51.830;5.684;2023-05-17T02:15:21;11.60;72.70
42755;DHT22;28407;51.830;5.684;2023-05-17T02:17:22;11.60;72.80
42755;DHT22;28407;51.830;5.684;2023-05-17T02:19:23;11.60;72.80
42755;DHT22;28407;51.830;5.684;2023-05-17T02:21:24;11.70;72.90
42755;DHT22;28407;51.830;5.684;2023-05-17T02:23:25;11.70;72.90
42755;DHT22;28407;51.830;5.684;2023-05-17T02:25:26;11.70;73.00
42755;DHT22;28407;51.830;5.684;2023-05-17T02:27:27;11.70;73.00
42755;DHT22;28407;51.830;5.684;2023-05-17T02:29:27;11.70;73.10
42755;DHT22;28407;51.830;5.684;2023-05-17T02:31:28;11.70;73.10
42755;DHT22;28407;51.830;5.684;2023-05-17T02:33:29;11.80;73.20
42755;DHT22;28407;51.830;5.684;2023-05-17T02:35:30;11.80;73.30
42755;DHT22;28407;51.830;5.684;2023-05-17T02:37:30;11.80;73.20
42755;DHT22;28407;51.830;5.684;2023-05-17T02:39:32;11.80;73.20
42755;DHT22;28407;51.830;5.684;2023-05-17T02:41:33;11.80;73.30
42755;DHT22;28407;51.830;5.684;2023-05-17T02:43:33;11.80;73.30
42755;DHT22;28407;51.830;5.684;2023-05-17T02:45:34;11.90;73.30
42755;DHT22;28407;51.830;5.684;2023-05-17T02:47:34;11.90;73.40
42755;DHT22;28407;51.830;5.684;2023-05-17T02:49:35;11.90;73.40
42755;DHT22;28407;51.830;5.684;2023-05-17T02:51:36;11.90;73.40
42755;DHT22;28407;51.830;5.684;2023-05-17T02:53:37;11.90;73.50
42755;DHT22;28407;51.830;5.684;2023-05-17T02:55:39;11.90;73.50
42755;DHT22;28407;51.830;5.684;2023-05-17T02:57:39;11.90;73.50
42755;DHT22;28407;51.830;5.684;2023-05-17T02:59:40;11.90;73.60
42755;DHT22;28407;51.830;5.684;2023-05-17T03:01:41;11.90;73.60
42755;DHT22;28407;51.830;5.684;2023-05-17T03:03:41;11.90;73.60
42755;DHT22;28407;51.830;5.684;2023-05-17T03:05:42;12.00;73.70
42755;DHT22;28407;51.830;5.684;2023-05-17T03:07:43;12.00;73.70
42755;DHT22;28407;51.830;5.684;2023-05-17T03:09:43;12.00;73.80
42755;DHT22;28407;51.830;5.684;2023-05-17T03:11:44;12.00;73.80
42755;DHT22;28407;51.830;5.684;2023-05-17T03:13:51;12.00;73.90
42755;DHT22;28407;51.830;5.684;2023-05-17T03:15:55;12.00;73.90
42755;DHT22;28407;51.830;5.684;2023-05-17T03:17:56;12.00;73.90
42755;DHT22;28407;51.830;5.684;2023-05-17T03:19:58;12.00;73.90
42755;DHT22;28407;51.830;5.684;2023-05-17T03:21:59;12.00;74.00
42755;DHT22;28407;51.830;5.684;2023-05-17T03:24:00;12.00;74.00
42755;DHT22;28407;51.830;5.684;2023-05-17T03:26:00;12.00;74.10
42755;DHT22;28407;51.830;5.684;2023-05-17T03:28:03;12.00;74.10
42755;DHT22;28407;51.830;5.684;2023-05-17T03:30:05;12.00;74.10
42755;DHT22;28407;51.830;5.684;2023-05-17T03:32:07;12.00;74.20
42755;DHT22;28407;51.830;5.684;2023-05-17T03:34:08;12.00;74.20
42755;DHT22;28407;51.830;5.684;2023-05-17T03:36:10;12.00;74.30
42755;DHT22;28407;51.830;5.684;2023-05-17T03:38:11;12.00;74.50
42755;DHT22;28407;51.830;5.684;2023-05-17T03:40:12;12.00;74.30
42755;DHT22;28407;51.830;5.684;2023-05-17T03:42:12;12.00;74.40
42755;DHT22;28407;51.830;5.684;2023-05-17T03:44:13;12.00;74.50
42755;DHT22;28407;51.830;5.684;2023-05-17T03:46:14;12.00;74.50
42755;DHT22;28407;51.830;5.684;2023-05-17T03:48:15;12.00;74.50
42755;DHT22;28407;51.830;5.684;2023-05-17T03:50:17;12.00;74.50
42755;DHT22;28407;51.830;5.684;2023-05-17T03:52:18;12.10;74.60
42755;DHT22;28407;51.830;5.684;2023-05-17T03:54:19;12.00;74.50
42755;DHT22;28407;51.830;5.684;2023-05-17T03:56:20;12.00;74.60
42755;DHT22;28407;51.830;5.684;2023-05-17T03:58:20;12.10;74.70
42755;DHT22;28407;51.830;5.684;2023-05-17T04:00:22;12.00;74.60
42755;DHT22;28407;51.830;5.684;2023-05-17T04:02:26;12.00;74.70
42755;DHT22;28407;51.830;5.684;2023-05-17T04:04:27;12.10;74.70
42755;DHT22;28407;51.830;5.684;2023-05-17T04:06:28;12.10;74.80
42755;DHT22;28407;51.830;5.684;2023-05-17T04:08:28;12.10;74.90
42755;DHT22;28407;51.830;5.684;2023-05-17T04:10:29;12.10;74.90
42755;DHT22;28407;51.830;5.684;2023-05-17T04:12:30;12.10;74.90
42755;DHT22;28407;51.830;5.684;2023-05-17T04:14:31;12.10;75.00
42755;DHT22;28407;51.830;5.684;2023-05-17T04:16:32;12.10;75.00
42755;DHT22;28407;51.830;5.684;2023-05-17T04:18:34;12.10;75.00
42755;DHT22;28407;51.830;5.684;2023-05-17T04:20:35;12.10;75.00
42755;DHT22;28407;51.830;5.684;2023-05-17T04:22:36;12.10;75.00
42755;DHT22;28407;51.830;5.684;2023-05-17T04:24:36;12.20;75.10
42755;DHT22;28407;51.830;5.684;2023-05-17T04:26:37;12.20;75.10
42755;DHT22;28407;51.830;5.684;2023-05-17T04:28:39;12.20;75.10
42755;DHT22;28407;51.830;5.684;2023-05-17T04:30:45;12.20;75.10
42755;DHT22;28407;51.830;5.684;2023-05-17T04:32:46;12.20;75.20
42755;DHT22;28407;51.830;5.684;2023-05-17T04:34:47;12.20;75.20
42755;DHT22;28407;51.830;5.684;2023-05-17T04:36:48;12.20;75.20
42755;DHT22;28407;51.830;5.684;2023-05-17T04:38:49;12.20;75.20
42755;DHT22;28407;51.830;5.684;2023-05-17T04:40:59;12.20;75.30
42755;DHT22;28407;51.830;5.684;2023-05-17T04:43:00;12.20;75.30
42755;DHT22;28407;51.830;5.684;2023-05-17T04:45:01;12.20;75.40
42755;DHT22;28407;51.830;5.684;2023-05-17T04:47:03;12.20;75.40
42755;DHT22;28407;51.830;5.684;2023-05-17T04:49:04;12.30;75.50
42755;DHT22;28407;51.830;5.684;2023-05-17T04:51:05;12.20;75.50
42755;DHT22;28407;51.830;5.684;2023-05-17T04:53:06;12.20;75.60
42755;DHT22;28407;51.830;5.684;2023-05-17T04:55:09;12.30;76.30
42755;DHT22;28407;51.830;5.684;2023-05-17T04:57:11;12.30;75.70
42755;DHT22;28407;51.830;5.684;2023-05-17T04:59:25;12.20;75.60
42755;DHT22;28407;51.830;5.684;2023-05-17T05:01:26;12.30;75.70
42755;DHT22;28407;51.830;5.684;2023-05-17T05:03:29;12.20;75.70
42755;DHT22;28407;51.830;5.684;2023-05-17T05:05:30;12.30;75.80
42755;DHT22;28407;51.830;5.684;2023-05-17T05:07:31;12.30;75.80
42755;DHT22;28407;51.830;5.684;2023-05-17T05:09:32;12.30;75.80
42755;DHT22;28407;51.830;5.684;2023-05-17T05:11:32;12.30;75.80
42755;DHT22;28407;51.830;5.684;2023-05-17T05:13:33;12.30;75.90
42755;DHT22;28407;51.830;5.684;2023-05-17T05:15:39;12.30;75.90
42755;DHT22;28407;51.830;5.684;2023-05-17T05:17:40;12.30;75.90
42755;DHT22;28407;51.830;5.684;2023-05-17T05:19:41;12.30;76.00
42755;DHT22;28407;51.830;5.684;2023-05-17T05:21:44;12.30;76.00
42755;DHT22;28407;51.830;5.684;2023-05-17T05:23:45;12.30;76.00
42755;DHT22;28407;51.830;5.684;2023-05-17T05:25:48;12.30;76.00
42755;DHT22;28407;51.830;5.684;2023-05-17T05:27:49;12.30;76.00
42755;DHT22;28407;51.830;5.684;2023-05-17T05:29:50;12.40;76.00
42755;DHT22;28407;51.830;5.684;2023-05-17T05:31:51;12.40;76.10
42755;DHT22;28407;51.830;5.684;2023-05-17T05:33:52;12.40;76.70
42755;DHT22;28407;51.830;5.684;2023-05-17T05:35:53;12.40;76.00
42755;DHT22;28407;51.830;5.684;2023-05-17T05:37:53;12.40;76.00
42755;DHT22;28407;51.830;5.684;2023-05-17T05:39:54;12.40;76.00
42755;DHT22;28407;51.830;5.684;2023-05-17T05:41:55;12.40;76.00
42755;DHT22;28407;51.830;5.684;2023-05-17T05:43:56;12.40;76.10
42755;DHT22;28407;51.830;5.684;2023-05-17T05:45:56;12.40;76.00
42755;DHT22;28407;51.830;5.684;2023-05-17T05:47:57;12.50;76.10
42755;DHT22;28407;51.830;5.684;2023-05-17T05:49:58;12.50;76.10
42755;DHT22;28407;51.830;5.684;2023-05-17T05:51:58;12.50;76.10
42755;DHT22;28407;51.830;5.684;2023-05-17T05:54:01;12.50;76.10
42755;DHT22;28407;51.830;5.684;2023-05-17T05:56:02;12.50;76.00
42755;DHT22;28407;51.830;5.684;2023-05-17T05:58:03;12.50;76.10
42755;DHT22;28407;51.830;5.684;2023-05-17T06:00:04;12.50;76.10
42755;DHT22;28407;51.830;5.684;2023-05-17T06:02:13;12.50;76.10
42755;DHT22;28407;51.830;5.684;2023-05-17T06:04:13;12.60;76.10
42755;DHT22;28407;51.830;5.684;2023-05-17T06:06:14;12.50;76.00
42755;DHT22;28407;51.830;5.684;2023-05-17T06:08:17;12.60;76.10
42755;DHT22;28407;51.830;5.684;2023-05-17T06:10:18;12.60;76.10
42755;DHT22;28407;51.830;5.684;2023-05-17T06:12:18;12.60;76.00
42755;DHT22;28407;51.830;5.684;2023-05-17T06:14:20;12.60;75.90
42755;DHT22;28407;51.830;5.684;2023-05-17T06:16:20;12.70;75.90
42755;DHT22;28407;51.830;5.684;2023-05-17T06:18:21;12.70;75.80
42755;DHT22;28407;51.830;5.684;2023-05-17T06:20:22;12.70;75.70
42755;DHT22;28407;51.830;5.684;2023-05-17T06:22:22;12.80;75.70
42755;DHT22;28407;51.830;5.684;2023-05-17T06:24:23;12.80;75.60
42755;DHT22;28407;51.830;5.684;2023-05-17T06:26:23;12.80;75.50
42755;DHT22;28407;51.830;5.684;2023-05-17T06:28:24;12.80;75.30
42755;DHT22;28407;51.830;5.684;2023-05-17T06:30:25;12.80;75.10
42755;DHT22;28407;51.830;5.684;2023-05-17T06:32:26;12.80;75.10
42755;DHT22;28407;51.830;5.684;2023-05-17T06:34:27;12.90;75.00
42755;DHT22;28407;51.830;5.684;2023-05-17T06:36:28;12.90;74.90
42755;DHT22;28407;51.830;5.684;2023-05-17T06:38:28;12.90;74.80
42755;DHT22;28407;51.830;5.684;2023-05-17T06:40:29;12.90;74.60
42755;DHT22;28407;51.830;5.684;2023-05-17T06:42:29;12.90;74.50
42755;DHT22;28407;51.830;5.684;2023-05-17T06:44:30;12.90;74.40
42755;DHT22;28407;51.830;5.684;2023-05-17T06:46:31;13.00;74.30
42755;DHT22;28407;51.830;5.684;2023-05-17T06:48:31;13.00;74.10
42755;DHT22;28407;51.830;5.684;2023-05-17T06:50:32;13.00;74.10
42755;DHT22;28407;51.830;5.684;2023-05-17T06:52:33;13.00;73.90
42755;DHT22;28407;51.830;5.684;2023-05-17T06:54:34;13.00;73.90
42755;DHT22;28407;51.830;5.684;2023-05-17T06:56:35;13.10;73.70
42755;DHT22;28407;51.830;5.684;2023-05-17T06:58:35;13.00;73.50
42755;DHT22;28407;51.830;5.684;2023-05-17T07:00:36;13.10;73.50
42755;DHT22;28407;51.830;5.684;2023-05-17T07:02:37;13.10;73.40
42755;DHT22;28407;51.830;5.684;2023-05-17T07:04:37;13.10;73.30
42755;DHT22;28407;51.830;5.684;2023-05-17T07:06:38;13.10;73.10
42755;DHT22;28407;51.830;5.684;2023-05-17T07:08:38;13.10;72.90
42755;DHT22;28407;51.830;5.684;2023-05-17T07:10:39;13.10;72.80
42755;DHT22;28407;51.830;5.684;2023-05-17T07:12:40;13.10;72.70
42755;DHT22;28407;51.830;5.684;2023-05-17T07:14:41;13.10;72.50
42755;DHT22;28407;51.830;5.684;2023-05-17T07:16:41;13.10;72.50
42755;DHT22;28407;51.830;5.684;2023-05-17T07:18:42;13.10;72.30
42755;DHT22;28407;51.830;5.684;2023-05-17T07:20:42;13.10;72.20
42755;DHT22;28407;51.830;5.684;2023-05-17T07:22:43;13.20;72.10
42755;DHT22;28407;51.830;5.684;2023-05-17T07:24:44;13.20;72.00
42755;DHT22;28407;51.830;5.684;2023-05-17T07:26:45;13.20;71.90
42755;DHT22;28407;51.830;5.684;2023-05-17T07:28:46;13.30;71.80
42755;DHT22;28407;51.830;5.684;2023-05-17T07:30:47;13.30;71.90
42755;DHT22;28407;51.830;5.684;2023-05-17T07:32:48;13.30;71.70
42755;DHT22;28407;51.830;5.684;2023-05-17T07:34:48;13.30;71.70
42755;DHT22;28407;51.830;5.684;2023-05-17T07:36:49;13.30;71.60
42755;DHT22;28407;51.830;5.684;2023-05-17T07:38:49;13.30;71.50
42755;DHT22;28407;51.830;5.684;2023-05-17T07:40:50;13.30;71.50
42755;DHT22;28407;51.830;5.684;2023-05-17T07:42:51;13.30;71.40
42755;DHT22;28407;51.830;5.684;2023-05-17T07:44:52;13.30;71.30
42755;DHT22;28407;51.830;5.684;2023-05-17T07:46:52;13.30;71.20
42755;DHT22;28407;51.830;5.684;2023-05-17T07:48:53;13.30;71.00
42755;DHT22;28407;51.830;5.684;2023-05-17T07:50:54;13.40;70.90
42755;DHT22;28407;51.830;5.684;2023-05-17T07:52:54;13.40;70.70
42755;DHT22;28407;51.830;5.684;2023-05-17T07:54:55;13.40;70.40
42755;DHT22;28407;51.830;5.684;2023-05-17T07:56:56;13.50;70.20
42755;DHT22;28407;51.830;5.684;2023-05-17T07:58:57;13.50;70.10
42755;DHT22;28407;51.830;5.684;2023-05-17T08:00:58;13.50;70.00
42755;DHT22;28407;51.830;5.684;2023-05-17T08:02:59;13.60;69.90
42755;DHT22;28407;51.830;5.684;2023-05-17T08:05:00;13.60;69.70
42755;DHT22;28407;51.830;5.684;2023-05-17T08:07:01;13.60;69.60
42755;DHT22;28407;51.830;5.684;2023-05-17T08:09:02;13.60;69.30
42755;DHT22;28407;51.830;5.684;2023-05-17T08:11:03;13.70;69.20
42755;DHT22;28407;51.830;5.684;2023-05-17T08:13:05;13.70;68.90
42755;DHT22;28407;51.830;5.684;2023-05-17T08:15:06;13.70;68.80
42755;DHT22;28407;51.830;5.684;2023-05-17T08:17:06;13.70;68.80
42755;DHT22;28407;51.830;5.684;2023-05-17T08:19:10;13.70;68.70
42755;DHT22;28407;51.830;5.684;2023-05-17T08:21:12;13.70;68.40
42755;DHT22;28407;51.830;5.684;2023-05-17T08:23:13;13.70;68.40
42755;DHT22;28407;51.830;5.684;2023-05-17T08:25:14;13.80;68.40
42755;DHT22;28407;51.830;5.684;2023-05-17T08:27:14;13.80;68.10
42755;DHT22;28407;51.830;5.684;2023-05-17T08:29:16;13.90;68.10
42755;DHT22;28407;51.830;5.684;2023-05-17T08:31:16;13.90;68.00
42755;DHT22;28407;51.830;5.684;2023-05-17T08:33:17;14.00;67.80
42755;DHT22;28407;51.830;5.684;2023-05-17T08:35:20;14.00;67.70
42755;DHT22;28407;51.830;5.684;2023-05-17T08:37:20;14.00;67.50
42755;DHT22;28407;51.830;5.684;2023-05-17T08:39:21;14.00;67.30
42755;DHT22;28407;51.830;5.684;2023-05-17T08:41:21;14.00;67.30
42755;DHT22;28407;51.830;5.684;2023-05-17T08:43:22;14.10;67.20
42755;DHT22;28407;51.830;5.684;2023-05-17T08:45:25;14.10;67.00
42755;DHT22;28407;51.830;5.684;2023-05-17T08:47:27;14.10;66.90
42755;DHT22;28407;51.830;5.684;2023-05-17T08:49:32;14.20;66.90
42755;DHT22;28407;51.830;5.684;2023-05-17T08:51:35;14.20;66.70
42755;DHT22;28407;51.830;5.684;2023-05-17T08:53:36;14.20;66.40
42755;DHT22;28407;51.830;5.684;2023-05-17T08:55:38;14.30;66.10
42755;DHT22;28407;51.830;5.684;2023-05-17T08:57:40;14.30;65.80
42755;DHT22;28407;51.830;5.684;2023-05-17T08:59:41;14.30;65.60
42755;DHT22;28407;51.830;5.684;2023-05-17T09:01:44;14.40;65.50
42755;DHT22;28407;51.830;5.684;2023-05-17T09:03:46;14.40;65.30
42755;DHT22;28407;51.830;5.684;2023-05-17T09:05:50;14.40;65.10
42755;DHT22;28407;51.830;5.684;2023-05-17T09:07:55;14.50;64.90
42755;DHT22;28407;51.830;5.684;2023-05-17T09:09:56;14.60;64.60
42755;DHT22;28407;51.830;5.684;2023-05-17T09:11:57;14.60;64.50
42755;DHT22;28407;51.830;5.684;2023-05-17T09:14:03;14.60;64.30
42755;DHT22;28407;51.830;5.684;2023-05-17T09:16:12;14.70;64.10
42755;DHT22;28407;51.830;5.684;2023-05-17T09:18:14;14.80;64.00
42755;DHT22;28407;51.830;5.684;2023-05-17T09:20:24;14.90;64.60
42755;DHT22;28407;51.830;5.684;2023-05-17T09:22:25;14.90;63.60
42755;DHT22;28407;51.830;5.684;2023-05-17T09:24:27;15.00;63.50
42755;DHT22;28407;51.830;5.684;2023-05-17T09:26:40;15.00;63.20
42755;DHT22;28407;51.830;5.684;2023-05-17T09:28:41;15.00;63.10
42755;DHT22;28407;51.830;5.684;2023-05-17T09:30:42;15.00;63.10
42755;DHT22;28407;51.830;5.684;2023-05-17T09:32:43;15.10;62.90
42755;DHT22;28407;51.830;5.684;2023-05-17T09:34:47;15.20;62.70
42755;DHT22;28407;51.830;5.684;2023-05-17T09:36:48;15.30;62.50
42755;DHT22;28407;51.830;5.684;2023-05-17T09:39:03;15.30;62.40
42755;DHT22;28407;51.830;5.684;2023-05-17T09:41:05;15.30;62.30
42755;DHT22;28407;51.830;5.684;2023-05-17T09:43:06;15.30;62.30
42755;DHT22;28407;51.830;5.684;2023-05-17T09:45:07;15.30;62.30
42755;DHT22;28407;51.830;5.684;2023-05-17T09:47:08;15.30;62.20
42755;DHT22;28407;51.830;5.684;2023-05-17T09:49:09;15.40;62.00
42755;DHT22;28407;51.830;5.684;2023-05-17T09:51:09;15.50;61.70
42755;DHT22;28407;51.830;5.684;2023-05-17T09:53:28;15.50;61.50
42755;DHT22;28407;51.830;5.684;2023-05-17T09:55:29;15.60;61.20
42755;DHT22;28407;51.830;5.684;2023-05-17T09:57:36;15.60;61.20
42755;DHT22;28407;51.830;5.684;2023-05-17T09:59:37;15.70;61.00
42755;DHT22;28407;51.830;5.684;2023-05-17T10:01:40;15.70;61.00
42755;DHT22;28407;51.830;5.684;2023-05-17T10:03:41;15.70;60.90
42755;DHT22;28407;51.830;5.684;2023-05-17T10:05:43;15.80;60.90
42755;DHT22;28407;51.830;5.684;2023-05-17T10:07:45;15.80;60.60
42755;DHT22;28407;51.830;5.684;2023-05-17T10:09:47;15.90;60.50
42755;DHT22;28407;51.830;5.684;2023-05-17T10:11:51;15.90;60.30
42755;DHT22;28407;51.830;5.684;2023-05-17T10:16:10;16.10;60.10
42755;DHT22;28407;51.830;5.684;2023-05-17T10:18:11;16.10;60.00
42755;DHT22;28407;51.830;5.684;2023-05-17T10:20:14;16.20;60.00
42755;DHT22;28407;51.830;5.684;2023-05-17T10:22:16;16.30;59.80
42755;DHT22;28407;51.830;5.684;2023-05-17T10:24:19;16.30;59.60
42755;DHT22;28407;51.830;5.684;2023-05-17T10:26:21;16.30;59.30
42755;DHT22;28407;51.830;5.684;2023-05-17T10:28:22;16.30;59.20
42755;DHT22;28407;51.830;5.684;2023-05-17T10:30:25;16.40;59.30
42755;DHT22;28407;51.830;5.684;2023-05-17T10:32:26;16.40;59.10
42755;DHT22;28407;51.830;5.684;2023-05-17T10:34:28;16.40;58.90
42755;DHT22;28407;51.830;5.684;2023-05-17T10:36:29;16.50;58.80
42755;DHT22;28407;51.830;5.684;2023-05-17T10:38:30;16.50;58.70
42755;DHT22;28407;51.830;5.684;2023-05-17T10:40:31;16.60;58.70
42755;DHT22;28407;51.830;5.684;2023-05-17T10:42:33;16.70;58.50
42755;DHT22;28407;51.830;5.684;2023-05-17T10:44:34;16.70;58.30
42755;DHT22;28407;51.830;5.684;2023-05-17T10:46:35;16.80;58.20
42755;DHT22;28407;51.830;5.684;2023-05-17T10:48:36;16.90;58.00
42755;DHT22;28407;51.830;5.684;2023-05-17T10:50:38;17.00;57.80
42755;DHT22;28407;51.830;5.684;2023-05-17T10:52:47;17.00;57.60
42755;DHT22;28407;51.830;5.684;2023-05-17T10:54:48;17.10;57.50
42755;DHT22;28407;51.830;5.684;2023-05-17T10:56:52;17.10;57.30
42755;DHT22;28407;51.830;5.684;2023-05-17T11:01:51;17.20;57.10
42755;DHT22;28407;51.830;5.684;2023-05-17T11:03:54;17.30;57.00
42755;DHT22;28407;51.830;5.684;2023-05-17T11:08:14;17.50;56.50
42755;DHT22;28407;51.830;5.684;2023-05-17T11:10:16;17.50;56.30
42755;DHT22;28407;51.830;5.684;2023-05-17T11:14:51;17.80;55.90
42755;DHT22;28407;51.830;5.684;2023-05-17T11:16:55;17.80;55.60
42755;DHT22;28407;51.830;5.684;2023-05-17T11:19:08;17.80;55.50
42755;DHT22;28407;51.830;5.684;2023-05-17T11:21:12;17.90;55.10
42755;DHT22;28407;51.830;5.684;2023-05-17T11:23:17;17.90;55.00
42755;DHT22;28407;51.830;5.684;2023-05-17T11:25:21;18.00;54.90
42755;DHT22;28407;51.830;5.684;2023-05-17T11:27:22;18.10;54.70
42755;DHT22;28407;51.830;5.684;2023-05-17T11:29:30;18.20;54.50
42755;DHT22;28407;51.830;5.684;2023-05-17T11:31:32;18.20;54.20
42755;DHT22;28407;51.830;5.684;2023-05-17T11:33:43;18.30;54.00
42755;DHT22;28407;51.830;5.684;2023-05-17T11:35:44;18.40;53.60
42755;DHT22;28407;51.830;5.684;2023-05-17T11:37:45;18.50;53.60
42755;DHT22;28407;51.830;5.684;2023-05-17T11:40:06;18.60;53.30
42755;DHT22;28407;51.830;5.684;2023-05-17T11:42:23;18.80;52.90
42755;DHT22;28407;51.830;5.684;2023-05-17T11:44:33;18.80;52.70
42755;DHT22;28407;51.830;5.684;2023-05-17T11:46:34;18.90;52.40
42755;DHT22;28407;51.830;5.684;2023-05-17T11:48:35;19.00;52.30
42755;DHT22;28407;51.830;5.684;2023-05-17T11:50:36;19.10;52.20
42755;DHT22;28407;51.830;5.684;2023-05-17T11:52:39;19.10;51.90
42755;DHT22;28407;51.830;5.684;2023-05-17T11:54:40;19.20;51.70
42755;DHT22;28407;51.830;5.684;2023-05-17T11:56:42;19.30;51.60
42755;DHT22;28407;51.830;5.684;2023-05-17T11:58:42;19.40;51.70
42755;DHT22;28407;51.830;5.684;2023-05-17T12:00:43;19.40;51.70
42755;DHT22;28407;51.830;5.684;2023-05-17T12:02:44;19.50;51.40
42755;DHT22;28407;51.830;5.684;2023-05-17T12:04:45;19.60;51.30
42755;DHT22;28407;51.830;5.684;2023-05-17T12:06:46;19.70;51.10
42755;DHT22;28407;51.830;5.684;2023-05-17T12:08:46;19.80;50.90
42755;DHT22;28407;51.830;5.684;2023-05-17T12:10:51;19.90;50.60
42755;DHT22;28407;51.830;5.684;2023-05-17T12:12:52;19.90;50.30
42755;DHT22;28407;51.830;5.684;2023-05-17T12:14:52;20.00;50.20
42755;DHT22;28407;51.830;5.684;2023-05-17T12:16:54;20.10;50.10
42755;DHT22;28407;51.830;5.684;2023-05-17T12:18:56;20.10;50.10
42755;DHT22;28407;51.830;5.684;2023-05-17T12:20:58;20.20;50.10
42755;DHT22;28407;51.830;5.684;2023-05-17T12:23:02;20.20;50.00
42755;DHT22;28407;51.830;5.684;2023-05-17T12:25:03;20.30;49.90
42755;DHT22;28407;51.830;5.684;2023-05-17T12:27:03;20.30;49.70
42755;DHT22;28407;51.830;5.684;2023-05-17T12:29:04;20.40;49.60
42755;DHT22;28407;51.830;5.684;2023-05-17T12:31:13;20.60;49.50
42755;DHT22;28407;51.830;5.684;2023-05-17T12:33:15;20.60;49.10
42755;DHT22;28407;51.830;5.684;2023-05-17T12:35:16;20.70;48.90
42755;DHT22;28407;51.830;5.684;2023-05-17T12:37:17;20.80;48.90
42755;DHT22;28407;51.830;5.684;2023-05-17T12:39:18;20.90;48.50
42755;DHT22;28407;51.830;5.684;2023-05-17T12:41:24;20.90;48.30
42755;DHT22;28407;51.830;5.684;2023-05-17T12:43:25;20.90;48.10
42755;DHT22;28407;51.830;5.684;2023-05-17T12:45:28;21.00;48.00
42755;DHT22;28407;51.830;5.684;2023-05-17T12:47:31;21.00;47.80
42755;DHT22;28407;51.830;5.684;2023-05-17T12:49:37;21.10;47.70
42755;DHT22;28407;51.830;5.684;2023-05-17T12:51:44;21.20;47.50
42755;DHT22;28407;51.830;5.684;2023-05-17T12:53:50;21.30;47.40
42755;DHT22;28407;51.830;5.684;2023-05-17T12:55:55;21.30;47.30
42755;DHT22;28407;51.830;5.684;2023-05-17T12:58:01;21.40;47.30
42755;DHT22;28407;51.830;5.684;2023-05-17T13:00:05;21.40;47.30
42755;DHT22;28407;51.830;5.684;2023-05-17T13:02:07;21.50;47.80
42755;DHT22;28407;51.830;5.684;2023-05-17T13:04:07;21.60;46.90
42755;DHT22;28407;51.830;5.684;2023-05-17T13:06:08;21.70;46.70
42755;DHT22;28407;51.830;5.684;2023-05-17T13:08:19;21.70;46.70